Latest Weather Observations for Cape Nelson

IDV60801

Issued at 6:02 pm EST Friday 29 April 2016 (issued every 30 minutes, with the page automatically refreshed every 10 minutes)

About weather observations | Map of weather stations | Latest weather observations for VIC | Other Formats
Station Details ID: 090184 Name: CAPE NELSON LIGHTHOUSE Lat: -38.43 Lon: 141.54 Height: 45.4 m
Data from the previous 72 hours. | See also: Recent months at Cape Nelson
Date/Time
EST
Temp
°C
App
Temp
°C
Dew
Point
Rel
Hum
%
Delta-T
°C
Wind Press
QNH
hPa
Press
MSL
hPa
Rain
since 9 am
mm
Dir
 
Spd
km/h
Gust
km/h
Spd
kts
Gust
kts
29/06:00pm 16.0 14.1 12.9 82 1.7 NW 15 19 8 10 1011.0 1010.9 2.8
29/05:30pm 16.8 14.5 12.9 78 2.2 NW 17 22 9 12 1010.8 1010.7 2.8
29/05:00pm 17.6 14.8 13.1 75 2.5 NW 20 32 11 17 1010.6 1010.5 2.8
29/04:30pm 18.0 13.9 12.7 71 3.0 NW 26 35 14 19 1010.3 1010.2 2.8
29/04:00pm 18.3 13.8 12.5 69 3.2 NW 28 39 15 21 1010.3 1010.2 2.8
29/03:30pm 19.0 14.4 12.3 65 3.7 NW 28 41 15 22 1010.1 1010.0 2.8
29/03:00pm 19.0 14.5 12.5 66 3.6 NW 28 39 15 21 1009.8 1009.7 2.8
29/02:30pm 18.1 14.4 12.8 71 3.0 NW 24 35 13 19 1009.8 1009.7 2.8
29/02:00pm 17.7 14.6 14.4 81 1.9 NNW 24 33 13 18 1009.8 1009.7 2.8
29/01:30pm 16.6 13.8 15.3 92 0.8 NNW 24 35 13 19 1009.8 1009.7 2.8
29/01:00pm 15.7 13.6 14.6 93 0.6 NNW 19 26 10 14 1010.2 1010.1 2.8
29/12:30pm 15.4 13.0 14.3 93 0.6 NNW 20 28 11 15 1010.1 1010.0 2.8
29/12:00pm 15.3 12.5 14.2 93 0.6 NNW 22 37 12 20 1010.7 1010.6 2.6
29/11:30am 15.1 11.8 14.0 93 0.6 NNW 24 39 13 21 1010.9 1010.8 2.2
29/11:00am 15.3 11.6 14.0 92 0.7 NNW 26 39 14 21 1011.1 1011.0 1.6
29/10:30am 15.4 10.0 13.8 90 0.9 NNW 35 50 19 27 1010.9 1010.8 1.0
29/10:10am 15.6 11.2 14.0 90 0.9 NNW 30 48 16 26 1011.1 1011.0 0.6
29/10:00am 15.7 11.7 14.1 90 0.9 NNW 28 41 15 22 1011.1 1011.0 0.6
29/09:30am 15.7 10.9 13.9 89 1.0 NNW 32 46 17 25 1011.0 1010.9 0.2
29/09:04am 16.0 11.5 13.8 87 1.2 NNW 30 48 16 26 1011.2 1011.1 0.0
29/09:00am 16.0 11.5 13.7 86 1.3 NNW 30 46 16 25 1011.3 1011.2 5.4
29/08:30am 16.0 11.8 13.5 85 1.4 NNW 28 43 15 23 1011.0 1010.9 5.4
29/08:01am 16.6 11.8 12.9 79 2.1 NNW 30 48 16 26 1010.9 1010.8 5.2
29/08:00am 16.7 11.9 13.0 79 2.1 NNW 30 46 16 25 1010.9 1010.8 5.2
29/07:55am 16.8 12.0 12.9 78 2.2 NNW 30 48 16 26 1010.9 1010.8 5.2
29/07:30am 17.0 12.1 12.7 76 2.4 N 30 46 16 25 1010.7 1010.6 5.2
29/07:15am 17.2 12.3 12.7 75 2.5 N 30 48 16 26 1010.6 1010.5 5.2
29/07:00am 17.2 12.3 12.7 75 2.5 N 30 46 16 25 1010.5 1010.4 5.2
29/06:30am 16.9 12.3 12.2 74 2.6 N 28 44 15 24 1010.7 1010.6 5.2
29/06:00am 17.3 12.5 11.8 70 3.0 N 28 43 15 23 1010.8 1010.7 5.2
29/05:30am 16.6 12.0 12.4 76 2.3 N 28 46 15 25 1011.0 1010.9 5.2
29/05:29am 16.6 12.0 12.4 76 2.3 N 28 46 15 25 1011.0 1010.9 5.2
29/05:00am 15.6 12.3 12.9 84 1.5 N 22 33 12 18 1011.1 1011.0 5.2
29/04:30am 15.8 11.5 13.3 85 1.4 NNW 28 44 15 24 1012.0 1011.9 5.0
29/04:00am 15.6 11.9 14.0 90 0.9 N 26 39 14 21 1010.7 1010.6 4.6
29/03:30am 15.4 11.8 14.3 93 0.6 N 26 37 14 20 1010.3 1010.2 4.6
29/03:00am 15.3 12.1 14.3 94 0.6 NNE 24 33 13 18 1010.1 1010.0 4.6
29/02:30am 15.4 12.3 14.6 95 0.5 NNE 24 35 13 19 1010.6 1010.5 4.6
29/02:00am 15.3 12.2 14.5 95 0.5 NNE 24 35 13 19 1011.1 1011.0 4.6
29/01:30am 15.3 12.9 14.5 95 0.5 NE 20 28 11 15 1012.2 1012.1 4.6
29/01:00am 15.5 13.8 14.7 95 0.5 NNE 17 26 9 14 1012.8 1012.7 4.6
29/12:30am 15.5 13.8 14.7 95 0.5 NNE 17 20 9 11 1013.4 1013.3 4.0
29/12:00am 15.4 13.7 14.6 95 0.5 NE 17 24 9 13 1013.1 1013.0 4.0
 
Date/Time
EST
Temp
°C
App
Temp
°C
Dew
Point
Rel
Hum
%
Delta-T
°C
Wind Press
QNH
hPa
Press
MSL
hPa
Rain
since 9 am
mm
Dir
 
Spd
km/h
Gust
km/h
Spd
kts
Gust
kts
28/11:30pm 15.2 14.1 14.2 94 0.6 NE 13 19 7 10 1013.8 1013.7 4.0
28/11:00pm 15.3 15.0 14.3 94 0.6 NW 9 13 5 7 1015.1 1015.1 3.6
28/10:30pm 15.3 12.9 14.3 94 0.6 ENE 20 28 11 15 1014.2 1014.1 3.2
28/10:00pm 15.1 12.6 14.0 93 0.6 ENE 20 28 11 15 1014.7 1014.7 3.2
28/09:30pm 14.8 12.0 13.3 91 0.8 ENE 20 26 11 14 1015.4 1015.4 3.0
28/09:00pm 15.0 13.9 13.2 89 1.0 NE 11 17 6 9 1016.0 1016.0 2.6
28/08:30pm 15.8 14.8 13.5 86 1.3 NNE 11 17 6 9 1016.6 1016.6 1.4
28/08:00pm 15.6 13.3 12.9 84 1.5 ENE 17 22 9 12 1015.7 1015.7 0.0
28/07:30pm 15.7 13.0 13.4 86 1.3 ENE 20 26 11 14 1015.3 1015.3 0.0
28/07:00pm 15.6 13.3 13.1 85 1.4 ENE 17 22 9 12 1015.4 1015.4 0.0
28/06:30pm 15.5 13.1 12.6 83 1.6 E 17 22 9 12 1015.5 1015.5 0.0
28/06:00pm 15.8 14.1 12.5 81 1.8 E 13 19 7 10 1015.5 1015.5 0.0
28/05:30pm 15.9 14.2 12.5 80 1.9 E 13 17 7 9 1015.6 1015.6 0.0
28/05:00pm 16.0 14.2 12.2 78 2.1 E 13 17 7 9 1015.5 1015.5 0.0
28/04:30pm 16.5 15.5 12.3 76 2.3 ESE 9 11 5 6 1016.0 1016.0 0.0
28/04:00pm 17.2 16.7 12.5 74 2.6 SE 7 9 4 5 1016.1 1016.1 0.0
28/03:30pm 16.9 16.5 12.4 75 2.5 S 6 7 3 4 1016.3 1016.3 0.0
28/03:00pm 17.0 15.9 12.1 73 2.7 S 9 11 5 6 1016.4 1016.4 0.0
28/02:30pm 17.5 16.8 12.0 70 3.0 S 7 11 4 6 1016.4 1016.4 0.0
28/02:00pm 18.4 18.1 12.8 70 3.1 S 6 11 3 6 1016.6 1016.6 0.0
28/01:30pm 18.2 17.6 12.4 69 3.2 WNW 7 11 4 6 1016.6 1016.6 0.0
28/01:00pm 18.2 17.2 12.2 68 3.3 W 9 13 5 7 1017.1 1017.1 0.0
28/12:30pm 18.7 18.6 13.3 71 3.1 NW 6 11 3 6 1017.2 1017.2 0.0
28/12:00pm 18.2 17.9 14.3 78 2.2 NNW 9 13 5 7 1017.2 1017.2 0.0
28/11:30am 16.9 16.1 14.0 83 1.7 NW 11 15 6 8 1017.5 1017.5 0.0
28/11:00am 16.8 14.5 13.1 79 2.1 W 17 20 9 11 1017.7 1017.7 0.0
28/10:30am 16.3 14.2 13.6 84 1.5 WNW 17 20 9 11 1017.5 1017.5 0.0
28/10:00am 15.8 13.8 13.8 88 1.1 W 17 26 9 14 - - 0.0
28/09:30am 17.0 15.2 15.9 93 0.6 NW 20 30 11 16 1017.5 1017.5 0.0
28/09:00am 16.1 14.5 15.0 93 0.6 NW 17 24 9 13 1017.0 1017.0 3.0
28/08:30am 15.5 13.1 14.5 94 0.6 NW 20 24 11 13 1016.9 1016.9 3.0
28/08:00am 15.5 13.3 14.5 94 0.6 NW 19 22 10 12 1016.5 1016.5 3.0
28/07:30am 15.3 13.4 14.2 93 0.6 NW 17 22 9 12 1016.0 1016.0 3.0
28/07:00am 15.1 13.1 13.8 92 0.7 NW 17 20 9 11 1015.7 1015.7 3.0
28/06:30am 15.2 13.6 13.9 92 0.7 NW 15 22 8 12 1015.4 1015.4 2.8
28/06:00am 15.5 14.0 14.2 92 0.7 NW 15 20 8 11 1015.1 1015.1 2.6
28/05:30am 15.9 14.2 14.6 92 0.7 WNW 17 20 9 11 1014.7 1014.7 1.8
28/05:00am 15.9 14.9 14.6 92 0.7 W 13 19 7 10 1014.5 1014.5 1.4
28/04:30am 16.8 15.0 15.5 92 0.8 W 19 26 10 14 1014.4 1014.4 0.6
28/04:00am 16.9 14.8 15.2 90 1.0 WNW 20 26 11 14 1014.7 1014.7 0.0
28/03:30am 16.8 15.8 14.6 87 1.3 WNW 13 17 7 9 1013.5 1013.4 0.0
28/03:00am 16.7 14.7 13.8 83 1.6 W 17 22 9 12 1013.9 1013.8 0.0
28/02:30am 16.7 14.6 12.5 76 2.3 WNW 15 19 8 10 1013.7 1013.6 0.0
28/02:00am 16.6 15.2 12.2 75 2.4 NNW 11 15 6 8 1013.6 1013.5 0.0
28/01:30am 17.0 15.7 12.5 75 2.5 NW 11 15 6 8 1013.8 1013.7 0.0
28/01:00am 17.3 16.0 12.6 74 2.6 NNW 11 15 6 8 1012.9 1012.8 0.0
28/12:30am 17.6 15.2 12.7 73 2.7 NW 17 20 9 11 1013.4 1013.3 0.0
28/12:00am 17.6 14.7 12.9 74 2.6 WNW 20 28 11 15 1013.4 1013.3 0.0
 
Date/Time
EST
Temp
°C
App
Temp
°C
Dew
Point
Rel
Hum
%
Delta-T
°C
Wind Press
QNH
hPa
Press
MSL
hPa
Rain
since 9 am
mm
Dir
 
Spd
km/h
Gust
km/h
Spd
kts
Gust
kts
27/11:30pm 17.6 15.3 12.9 74 2.6 NW 17 22 9 12 1013.4 1013.3 0.0
27/11:00pm 17.9 15.7 13.2 74 2.7 WNW 17 22 9 12 1013.4 1013.3 0.0
27/10:30pm 17.9 15.2 13.0 73 2.8 NW 19 26 10 14 1013.2 1013.1 0.0
27/10:00pm 18.2 14.5 12.6 70 3.1 NW 24 32 13 17 1013.5 1013.4 0.0
27/09:30pm 18.6 14.2 13.0 70 3.2 NW 28 37 15 20 1013.3 1013.2 0.0
27/09:00pm 18.3 14.7 13.2 72 2.9 NW 24 35 13 19 1013.5 1013.4 0.0
27/08:30pm 17.9 14.7 13.2 74 2.7 NW 22 33 12 18 1013.3 1013.2 0.0
27/08:00pm 18.8 16.1 12.8 68 3.4 WNW 19 28 10 15 1013.7 1013.6 0.0
27/07:30pm 20.0 17.8 10.7 55 5.1 NW 13 19 7 10 1013.1 1013.0 0.0
27/07:00pm 20.9 17.5 9.2 47 6.2 NW 17 20 9 11 1012.8 1012.7 0.0
27/06:30pm 21.1 17.5 9.7 48 6.1 NW 19 28 10 15 1012.6 1012.5 0.0
27/06:00pm 21.4 18.0 9.3 46 6.5 NNW 17 28 9 15 1011.4 1011.3 0.0
27/05:30pm 22.1 17.9 9.6 45 6.7 NW 22 33 12 18 1011.7 1011.6 0.0
27/05:00pm 23.5 18.1 8.0 37 8.2 NW 26 33 14 18 1011.4 1011.3 0.0
27/04:30pm 23.6 17.9 8.5 38 8.1 NW 28 39 15 21 1011.4 1011.3 0.0
27/04:00pm 25.4 19.1 7.5 32 9.5 NW 30 43 16 23 1011.2 1011.1 0.0
27/03:30pm 26.6 20.1 6.6 28 10.5 NW 30 48 16 26 1011.1 1011.0 0.0
27/03:01pm 25.9 18.8 6.5 29 10.1 NNW 33 52 18 28 1011.0 1010.9 0.0
27/03:00pm 25.8 18.2 5.9 28 10.3 NNW 35 52 19 28 1011.0 1010.9 0.0
27/02:43pm 25.7 18.5 5.8 28 10.2 NNW 33 52 18 28 1010.9 1010.8 0.0
27/02:30pm 26.2 18.7 6.3 28 10.4 NNW 35 50 19 27 1010.8 1010.7 0.0
27/02:20pm 26.4 19.4 5.9 27 10.6 NNW 32 50 17 27 1010.6 1010.5 0.0
27/02:00pm 26.7 21.1 7.2 29 10.4 NNW 26 48 14 26 1010.8 1010.7 0.0
27/01:37pm 26.4 19.3 6.4 28 10.5 NNW 33 54 18 29 1010.9 1010.8 0.0
27/01:30pm 26.3 18.4 6.4 28 10.4 NNW 37 52 20 28 1010.9 1010.8 0.0
27/01:00pm 26.7 19.6 6.2 27 10.7 NNW 33 57 18 31 1011.2 1011.1 0.0
27/12:44pm 27.0 20.1 6.4 27 10.8 NNW 32 57 17 31 1011.2 1011.1 0.0
27/12:30pm 26.8 19.8 6.8 28 10.6 NNW 33 48 18 26 1011.5 1011.4 0.0
27/12:00pm 26.2 19.4 6.8 29 10.2 NNW 32 50 17 27 1011.7 1011.6 0.0
27/11:30am 25.9 18.4 6.5 29 10.1 NNW 35 54 19 29 1011.7 1011.6 0.0
27/11:00am 25.7 19.0 7.3 31 9.7 N 32 50 17 27 1012.2 1012.1 0.0
27/10:35am 23.7 16.9 6.9 34 8.7 N 32 50 17 27 1012.7 1012.6 0.0
27/10:30am 23.4 16.0 6.7 34 8.6 N 35 50 19 27 1012.7 1012.6 0.0
27/10:00am 22.8 15.0 6.6 35 8.3 N 37 61 20 33 1013.0 1012.9 0.0
27/09:32am 22.2 15.6 6.0 35 8.2 N 30 59 16 32 1013.1 1013.0 0.0
27/09:30am 22.1 15.5 5.9 35 8.2 N 30 46 16 25 1013.1 1013.0 0.0
27/09:00am 21.8 15.2 6.1 36 7.9 N 30 50 16 27 1013.3 1013.2 0.0
27/08:30am 20.8 13.8 6.0 38 7.4 N 32 50 17 27 1013.5 1013.4 0.0
27/08:20am 20.3 13.6 5.5 38 7.3 N 30 48 16 26 1013.4 1013.3 0.0
27/08:00am 20.2 13.1 5.4 38 7.3 N 32 48 17 26 1013.4 1013.3 0.0
27/07:30am 20.3 13.0 5.5 38 7.3 N 33 48 18 26 1013.3 1013.2 0.0
27/07:14am 20.2 13.1 5.4 38 7.3 N 32 50 17 27 1013.3 1013.2 0.0
27/07:00am 20.3 13.5 5.1 37 7.5 N 30 43 16 23 1013.5 1013.4 0.0
27/06:47am 20.3 13.6 5.5 38 7.3 N 30 50 16 27 1013.6 1013.5 0.0
27/06:30am 20.3 14.6 5.1 37 7.5 N 24 41 13 22 1013.9 1013.8 0.0
27/06:00am 19.9 14.3 5.2 38 7.2 N 24 33 13 18 1014.1 1014.0 0.0
27/05:30am 20.0 14.3 4.9 37 7.4 N 24 37 13 20 1014.2 1014.1 0.0
27/05:00am 19.7 13.3 5.0 38 7.2 N 28 44 15 24 1014.2 1014.1 0.0
27/04:30am 19.6 13.1 4.9 38 7.1 N 28 43 15 23 1014.3 1014.3 0.0
27/04:00am 19.4 13.3 4.7 38 7.1 N 26 39 14 21 1014.3 1014.3 0.0
27/03:30am 19.0 12.6 5.1 40 6.8 N 28 39 15 21 1014.5 1014.5 0.0
27/03:00am 18.9 12.8 5.0 40 6.7 N 26 37 14 20 1014.8 1014.8 0.0
27/02:30am 18.7 12.6 4.8 40 6.7 N 26 37 14 20 1015.0 1015.0 0.0
27/02:00am 18.4 12.3 4.9 41 6.5 N 26 43 14 23 1015.4 1015.4 0.0
27/01:30am 18.3 12.7 5.2 42 6.3 N 24 32 13 17 1015.6 1015.6 0.0
27/01:00am 18.4 13.2 5.3 42 6.4 N 22 32 12 17 1015.8 1015.8 0.0
27/12:30am 18.5 12.5 5.4 42 6.4 N 26 35 14 19 1016.2 1016.2 0.0
27/12:00am 18.3 13.0 5.2 42 6.3 N 22 32 12 17 1016.6 1016.6 0.0
 
Date/Time
EST
Temp
°C
App
Temp
°C
Dew
Point
Rel
Hum
%
Delta-T
°C
Wind Press
QNH
hPa
Press
MSL
hPa
Rain
since 9 am
mm
Dir
 
Spd
km/h
Gust
km/h
Spd
kts
Gust
kts
26/11:30pm 18.8 13.1 4.9 40 6.7 N 24 33 13 18 1017.1 1017.1 0.0
26/11:00pm 18.9 13.2 5.0 40 6.7 N 24 33 13 18 1017.5 1017.5 0.0
26/10:30pm 19.2 13.5 4.9 39 6.9 N 24 35 13 19 1017.9 1017.9 0.0
26/10:00pm 19.5 14.2 5.2 39 7.0 N 22 35 12 19 1018.0 1018.0 0.0
26/09:30pm 19.6 14.4 5.3 39 7.0 N 22 32 12 17 1018.3 1018.3 0.0
26/09:00pm 19.9 15.0 5.2 38 7.2 N 20 28 11 15 1018.4 1018.4 0.0
26/08:30pm 19.6 15.0 5.6 40 6.9 N 19 24 10 13 1018.6 1018.6 0.0
26/08:00pm 19.6 15.4 5.6 40 6.9 N 17 22 9 12 1018.8 1018.8 0.0
26/07:30pm 19.9 15.7 5.5 39 7.1 N 17 22 9 12 1018.8 1018.8 0.0
26/07:00pm 19.8 15.6 5.5 39 7.0 N 17 22 9 12 1019.0 1019.0 0.0
26/06:30pm 20.1 16.7 5.7 39 7.1 N 13 15 7 8 1018.8 1018.8 0.0

Other Formats:

Comma delimited format used in spreadsheet applications
http://www.bom.gov.au/fwo/IDV60801/IDV60801.94826.axf

JavaScript Object Notation format (JSON) in row-major order
http://www.bom.gov.au/fwo/IDV60801/IDV60801.94826.json